createdAt,value
2023-01-19T00:01:15.830Z,48.20
2023-01-19T00:03:44.670Z,47.81
2023-01-19T00:06:13.372Z,47.83
2023-01-19T00:08:44.740Z,47.69
2023-01-19T00:11:14.014Z,47.85
2023-01-19T00:13:50.653Z,48.13
2023-01-19T00:16:21.767Z,48.87
2023-01-19T00:18:51.933Z,49.17
2023-01-19T00:21:21.656Z,48.46
2023-01-19T00:23:52.813Z,48.32
2023-01-19T00:26:22.868Z,47.70
2023-01-19T00:28:53.582Z,48.20
2023-01-19T00:31:22.278Z,48.51
2023-01-19T00:33:52.805Z,49.13
2023-01-19T00:36:21.684Z,49.33
2023-01-19T00:38:50.510Z,49.63
2023-01-19T00:41:19.447Z,50.10
2023-01-19T00:43:47.205Z,50.46
2023-01-19T00:46:17.008Z,50.88
2023-01-19T00:48:46.127Z,50.29
2023-01-19T00:51:14.644Z,50.91
2023-01-19T00:53:43.609Z,50.59
2023-01-19T00:56:12.120Z,50.20
2023-01-19T00:58:41.007Z,49.63
2023-01-19T01:01:09.769Z,49.80
2023-01-19T01:03:40.228Z,49.29
2023-01-19T01:06:09.456Z,48.54
2023-01-19T01:08:38.309Z,48.35
2023-01-19T01:11:06.873Z,48.45
2023-01-19T01:13:35.649Z,48.30
2023-01-19T01:16:04.678Z,48.74
2023-01-19T01:18:33.624Z,48.61
2023-01-19T01:21:04.164Z,48.53
2023-01-19T01:23:33.064Z,48.78
2023-01-19T01:26:02.241Z,48.93
2023-01-19T01:28:31.685Z,48.44
2023-01-19T01:31:00.226Z,48.49
2023-01-19T01:33:40.905Z,48.76
2023-01-19T01:36:12.539Z,48.57
2023-01-19T01:38:42.651Z,48.47
2023-01-19T01:41:12.144Z,48.17
2023-01-19T01:43:48.757Z,47.90
2023-01-19T01:46:18.154Z,47.35
2023-01-19T01:48:53.141Z,47.54
2023-01-19T01:51:27.396Z,47.61
2023-01-19T01:54:06.590Z,48.50
2023-01-19T01:56:38.672Z,48.30
2023-01-19T01:59:12.796Z,48.97
2023-01-19T02:01:58.929Z,49.16
2023-01-19T02:04:30.842Z,48.91
2023-01-19T02:07:18.024Z,50.27
2023-01-19T02:10:04.288Z,50.30
2023-01-19T02:12:51.188Z,50.31
2023-01-19T02:15:21.306Z,50.49
2023-01-19T02:17:50.247Z,51.49
2023-01-19T02:20:22.141Z,51.20
2023-01-19T02:22:53.587Z,50.06
2023-01-19T02:25:25.618Z,49.67
2023-01-19T02:27:54.786Z,49.12
2023-01-19T02:30:24.159Z,48.86
2023-01-19T02:32:52.784Z,47.75
2023-01-19T02:35:23.445Z,47.85
2023-01-19T02:37:54.121Z,47.74
2023-01-19T02:40:25.790Z,47.30
2023-01-19T02:43:00.913Z,47.09
2023-01-19T02:45:31.474Z,46.93
2023-01-19T02:48:00.117Z,47.41
2023-01-19T02:50:38.489Z,47.42
2023-01-19T02:53:19.794Z,48.19
2023-01-19T02:55:56.020Z,49.32
2023-01-19T02:58:35.353Z,49.79
2023-01-19T03:01:14.781Z,50.61
2023-01-19T03:03:53.245Z,51.18
2023-01-19T03:06:34.642Z,50.36
2023-01-19T03:09:11.608Z,50.30
2023-01-19T03:11:47.070Z,49.82
2023-01-19T03:14:22.350Z,50.64
2023-01-19T03:16:55.325Z,50.81
2023-01-19T03:19:28.736Z,49.95
2023-01-19T03:22:00.362Z,50.71
2023-01-19T03:24:32.776Z,50.88
2023-01-19T03:27:09.919Z,51.08
2023-01-19T03:29:41.584Z,51.27
2023-01-19T03:32:15.094Z,50.57
2023-01-19T03:34:46.316Z,50.53
2023-01-19T03:37:18.071Z,50.90
2023-01-19T03:39:46.668Z,50.46
2023-01-19T03:42:19.161Z,50.59
2023-01-19T03:44:50.689Z,49.94
2023-01-19T03:47:20.957Z,49.73
2023-01-19T03:49:52.144Z,49.63
2023-01-19T03:52:29.306Z,50.40
2023-01-19T03:54:57.766Z,50.38
2023-01-19T03:57:28.148Z,50.02
2023-01-19T03:59:58.715Z,50.22
2023-01-19T04:02:28.417Z,49.25
2023-01-19T04:04:57.004Z,48.40
2023-01-19T04:07:25.924Z,48.26
2023-01-19T04:09:54.405Z,48.21
2023-01-19T04:12:23.636Z,48.98
2023-01-19T04:14:53.507Z,49.55
2023-01-19T04:17:22.253Z,48.64
2023-01-19T04:19:51.225Z,49.68
2023-01-19T04:22:20.063Z,49.52
2023-01-19T04:24:48.969Z,49.94
2023-01-19T04:27:17.969Z,50.47
2023-01-19T04:29:46.494Z,49.10
2023-01-19T04:32:16.805Z,49.71
2023-01-19T04:34:45.597Z,49.95
2023-01-19T04:37:14.363Z,50.30
2023-01-19T04:39:42.869Z,49.98
2023-01-19T04:42:11.709Z,49.31
2023-01-19T04:44:40.755Z,48.55
2023-01-19T04:47:09.685Z,48.12
2023-01-19T04:49:39.727Z,47.80
2023-01-19T04:52:09.418Z,47.71
2023-01-19T04:54:37.946Z,47.61
2023-01-19T04:57:07.011Z,47.60
2023-01-19T04:59:35.620Z,47.29
2023-01-19T05:02:04.458Z,47.02
2023-01-19T05:04:32.988Z,46.55
2023-01-19T05:07:03.178Z,46.52
2023-01-19T05:09:31.796Z,46.28
2023-01-19T05:12:00.656Z,46.64
2023-01-19T05:14:29.153Z,46.50
2023-01-19T05:16:58.214Z,46.74
2023-01-19T05:19:26.781Z,46.64
2023-01-19T05:21:55.653Z,46.50
2023-01-19T05:24:25.544Z,46.61
2023-01-19T05:26:54.327Z,46.89
2023-01-19T05:29:22.855Z,46.55
2023-01-19T05:31:51.814Z,46.78
2023-01-19T05:34:20.308Z,46.98
2023-01-19T05:36:49.168Z,47.98
2023-01-19T05:39:17.732Z,47.39
2023-01-19T05:41:48.281Z,47.18
2023-01-19T05:44:16.803Z,47.54
2023-01-19T05:46:45.741Z,47.79
2023-01-19T05:49:14.886Z,48.09
2023-01-19T05:51:45.523Z,48.76
2023-01-19T05:54:16.165Z,49.22
2023-01-19T05:56:45.050Z,49.47
2023-01-19T05:59:15.431Z,50.45
2023-01-19T06:01:44.691Z,51.46
2023-01-19T06:04:13.245Z,50.77
2023-01-19T06:06:42.021Z,50.78
2023-01-19T06:09:10.786Z,51.24
2023-01-19T06:11:39.790Z,50.42
2023-01-19T06:14:08.347Z,50.52
2023-01-19T06:16:38.771Z,50.06
2023-01-19T06:19:07.393Z,49.21
2023-01-19T06:21:36.287Z,48.81
2023-01-19T06:24:05.165Z,48.53
2023-01-19T06:26:34.092Z,48.57
2023-01-19T06:29:02.573Z,48.50
2023-01-19T06:31:31.545Z,48.07
2023-01-19T06:34:01.574Z,48.33
2023-01-19T06:36:30.426Z,47.94
2023-01-19T06:38:59.181Z,47.83
2023-01-19T06:41:28.413Z,48.33
2023-01-19T06:43:56.952Z,48.13
2023-01-19T06:46:26.130Z,48.09
2023-01-19T06:48:55.308Z,48.27
2023-01-19T06:51:26.039Z,47.73
2023-01-19T06:53:54.916Z,47.91
2023-01-19T06:56:23.372Z,47.15
2023-01-19T06:58:53.206Z,46.94
2023-01-19T07:01:22.035Z,46.64
2023-01-19T07:03:50.868Z,47.79
2023-01-19T07:06:19.595Z,47.90
2023-01-19T07:08:49.848Z,49.31
2023-01-19T07:11:24.948Z,49.26
2023-01-19T07:13:59.485Z,50.22
2023-01-19T07:16:28.198Z,51.44
2023-01-19T07:18:57.261Z,50.54
2023-01-19T07:21:27.191Z,51.06
2023-01-19T07:23:59.052Z,52.01
2023-01-19T07:26:28.067Z,51.52
2023-01-19T07:28:56.970Z,51.00
2023-01-19T07:31:25.961Z,50.93
2023-01-19T07:33:55.011Z,50.98
2023-01-19T07:36:23.751Z,51.21
2023-01-19T07:38:52.701Z,51.25
2023-01-19T07:41:22.682Z,51.28
2023-01-19T07:43:52.860Z,50.47
2023-01-19T07:46:21.471Z,50.85
2023-01-19T07:48:50.423Z,50.25
2023-01-19T07:51:19.199Z,49.58
2023-01-19T07:53:48.156Z,48.91
2023-01-19T07:56:16.822Z,48.00
2023-01-19T07:58:47.652Z,47.37
2023-01-19T08:01:16.299Z,47.07
2023-01-19T08:03:46.619Z,47.22
2023-01-19T08:06:21.763Z,46.58
2023-01-19T08:08:51.164Z,47.36
2023-01-19T08:11:19.779Z,47.46
2023-01-19T08:13:50.092Z,47.02
2023-01-19T08:16:19.022Z,47.03
2023-01-19T08:18:48.088Z,46.73
2023-01-19T08:21:16.755Z,46.47
2023-01-19T08:23:45.904Z,46.15
2023-01-19T08:26:23.978Z,45.88
2023-01-19T08:28:54.534Z,46.90
2023-01-19T08:31:25.029Z,47.49
2023-01-19T08:33:54.389Z,46.92
2023-01-19T08:36:25.078Z,47.49
2023-01-19T08:38:54.388Z,47.44
2023-01-19T08:41:23.383Z,47.55
2023-01-19T08:43:52.242Z,47.33
2023-01-19T08:46:22.251Z,47.84
2023-01-19T08:48:51.158Z,48.76
2023-01-19T08:51:20.285Z,48.52
2023-01-19T08:53:49.218Z,48.52
2023-01-19T08:56:20.539Z,48.37
2023-01-19T08:59:03.423Z,48.18
2023-01-19T09:01:38.445Z,47.88
2023-01-19T09:04:07.682Z,48.39
2023-01-19T09:06:36.272Z,48.34
2023-01-19T09:09:05.570Z,48.78
2023-01-19T09:11:35.052Z,48.86
2023-01-19T09:14:05.807Z,47.66
2023-01-19T09:16:34.670Z,46.86
2023-01-19T09:19:05.086Z,46.94
2023-01-19T09:21:33.802Z,46.70
2023-01-19T09:24:02.870Z,46.59
2023-01-19T09:26:33.190Z,45.97
2023-01-19T09:29:02.486Z,46.34
2023-01-19T09:31:31.342Z,46.00
2023-01-19T09:34:00.445Z,45.29
2023-01-19T09:36:31.077Z,45.11
2023-01-19T09:38:59.911Z,44.15
2023-01-19T09:41:28.969Z,45.29
2023-01-19T09:44:01.065Z,44.12
2023-01-19T09:46:39.104Z,44.74
2023-01-19T09:49:14.855Z,44.70
2023-01-19T09:51:47.715Z,44.13
2023-01-19T09:54:19.379Z,43.26
2023-01-19T09:56:52.695Z,43.79
2023-01-19T09:59:25.228Z,42.81
2023-01-19T10:02:07.835Z,42.53
2023-01-19T10:04:41.779Z,42.36
2023-01-19T10:07:20.487Z,41.71
2023-01-19T10:10:05.110Z,42.10
2023-01-19T10:12:44.977Z,41.39
2023-01-19T10:15:24.957Z,40.67
2023-01-19T10:18:09.693Z,41.50
2023-01-19T10:20:43.052Z,41.15
2023-01-19T10:23:37.708Z,41.22
2023-01-19T10:26:11.051Z,40.41
2023-01-19T10:28:41.622Z,41.17
2023-01-19T10:31:11.176Z,40.77
2023-01-19T10:33:40.588Z,40.68
2023-01-19T10:36:18.302Z,40.35
2023-01-19T10:38:49.899Z,40.36
2023-01-19T10:41:24.342Z,40.16
2023-01-19T10:44:01.626Z,40.21
2023-01-19T10:46:38.926Z,39.16
2023-01-19T10:49:08.592Z,40.01
2023-01-19T10:51:49.360Z,38.62
2023-01-19T10:54:20.919Z,39.13
2023-01-19T10:56:56.844Z,39.21
2023-01-19T10:59:34.742Z,38.43
2023-01-19T11:02:15.648Z,37.62
2023-01-19T11:04:47.330Z,37.03
2023-01-19T11:07:22.129Z,36.80
2023-01-19T11:10:15.424Z,36.28
2023-01-19T11:12:47.213Z,36.49
2023-01-19T11:15:18.158Z,35.64
2023-01-19T11:17:48.657Z,34.88
2023-01-19T11:20:23.279Z,35.54
2023-01-19T11:23:26.523Z,35.74
2023-01-19T11:26:01.459Z,34.81
2023-01-19T11:28:35.314Z,34.29
2023-01-19T11:31:19.077Z,34.50
2023-01-19T11:33:51.646Z,33.93
2023-01-19T11:36:23.933Z,34.62
2023-01-19T11:38:54.995Z,34.23
2023-01-19T11:41:29.564Z,34.18
2023-01-19T11:44:01.345Z,34.11
2023-01-19T11:46:35.492Z,34.51
2023-01-19T11:49:09.427Z,34.78
2023-01-19T11:51:45.308Z,33.90
2023-01-19T11:54:23.827Z,33.51
2023-01-19T11:56:57.451Z,33.36
2023-01-19T11:59:26.574Z,33.75
2023-01-19T12:01:59.062Z,33.56
2023-01-19T12:04:33.148Z,33.87
2023-01-19T12:07:08.897Z,34.29
2023-01-19T12:09:42.993Z,34.40
2023-01-19T12:12:25.885Z,34.67
2023-01-19T12:15:01.060Z,35.46
2023-01-19T12:17:34.250Z,39.36
2023-01-19T12:20:15.381Z,52.34
2023-01-19T12:22:50.957Z,55.41
2023-01-19T12:25:23.810Z,58.36
2023-01-19T12:27:55.564Z,58.67
2023-01-19T12:30:27.692Z,60.74
2023-01-19T12:33:33.448Z,60.47
2023-01-19T12:36:05.379Z,60.47
2023-01-19T12:38:49.793Z,60.40
2023-01-19T12:41:26.337Z,57.48
2023-01-19T12:44:34.282Z,61.46
2023-01-19T12:47:36.669Z,59.14
2023-01-19T12:50:15.717Z,59.09
2023-01-19T12:52:57.192Z,58.29
2023-01-19T12:55:31.280Z,59.19
2023-01-19T12:58:04.057Z,58.58
2023-01-19T13:00:40.173Z,56.75
2023-01-19T13:07:10.721Z,58.49
2023-01-19T13:09:42.756Z,58.47
2023-01-19T13:12:25.897Z,57.80
2023-01-19T13:15:28.933Z,57.80
2023-01-19T13:17:58.914Z,58.95
2023-01-19T13:20:32.878Z,57.69
2023-01-19T13:23:19.466Z,58.24
2023-01-19T13:25:53.512Z,57.58
2023-01-19T13:28:31.569Z,55.46
2023-01-19T13:31:03.919Z,55.40
2023-01-19T13:33:41.107Z,55.68
2023-01-19T13:36:21.664Z,57.43
2023-01-19T13:38:53.021Z,56.35
2023-01-19T13:41:25.512Z,57.43
2023-01-19T13:44:01.095Z,59.91
2023-01-19T13:46:31.615Z,60.72
2023-01-19T13:49:04.276Z,60.33
2023-01-19T13:51:33.469Z,61.09
2023-01-19T13:54:03.847Z,60.97
2023-01-19T13:56:33.295Z,59.48
2023-01-19T13:59:07.043Z,58.79
2023-01-19T14:01:35.987Z,60.25
2023-01-19T14:04:05.492Z,61.37
2023-01-19T14:06:39.024Z,63.62
2023-01-19T14:09:17.911Z,66.07
2023-01-19T14:11:48.963Z,68.08
2023-01-19T14:14:28.764Z,69.53
2023-01-19T14:16:58.093Z,68.17
2023-01-19T14:19:27.253Z,66.40
2023-01-19T14:22:01.340Z,67.60
2023-01-19T14:24:33.283Z,68.30
2023-01-19T14:27:20.779Z,69.38
2023-01-19T14:29:53.611Z,68.68
2023-01-19T14:32:23.739Z,68.38
2023-01-19T14:34:54.104Z,68.98
2023-01-19T14:37:26.680Z,69.35
2023-01-19T14:40:04.610Z,70.16
2023-01-19T14:42:37.285Z,69.58
2023-01-19T14:45:14.653Z,70.83
2023-01-19T14:47:46.853Z,70.18
2023-01-19T14:50:25.810Z,70.49
2023-01-19T14:52:59.248Z,70.85
2023-01-19T14:55:35.507Z,71.83
2023-01-19T14:58:11.784Z,71.36
2023-01-19T15:00:41.264Z,71.65
2023-01-19T15:03:11.071Z,70.84
2023-01-19T15:05:41.058Z,72.33
2023-01-19T15:08:15.979Z,71.98
2023-01-19T15:10:47.022Z,71.71
2023-01-19T15:13:20.246Z,72.80
2023-01-19T15:15:49.931Z,72.62
2023-01-19T15:18:23.436Z,71.42
2023-01-19T15:20:52.299Z,72.24
2023-01-19T15:23:21.813Z,72.13
2023-01-19T15:25:53.148Z,72.27
2023-01-19T15:28:23.110Z,72.60
2023-01-19T15:30:53.811Z,71.82
2023-01-19T15:33:24.249Z,72.20
2023-01-19T15:35:54.089Z,71.95
2023-01-19T15:38:24.076Z,72.79
2023-01-19T15:40:54.171Z,72.48
2023-01-19T15:43:23.163Z,71.83
2023-01-19T15:46:00.526Z,71.69
2023-01-19T15:48:29.582Z,70.53
2023-01-19T15:50:58.621Z,70.74
2023-01-19T15:53:27.987Z,71.83
2023-01-19T15:55:58.698Z,72.54
2023-01-19T15:58:27.754Z,71.05
2023-01-19T16:00:57.981Z,69.90
2023-01-19T16:03:27.342Z,70.46
2023-01-19T16:05:55.977Z,70.92
2023-01-19T16:08:26.504Z,71.77
2023-01-19T16:10:55.157Z,70.46
2023-01-19T16:13:26.179Z,70.60
2023-01-19T16:15:55.532Z,70.03
2023-01-19T16:18:24.491Z,68.80
2023-01-19T16:20:53.517Z,67.83
2023-01-19T16:23:22.516Z,67.58
2023-01-19T16:25:59.056Z,67.36
2023-01-19T16:28:29.840Z,65.54
2023-01-19T16:30:58.839Z,63.28
2023-01-19T16:33:27.796Z,62.76
2023-01-19T16:35:56.620Z,64.74
2023-01-19T16:38:25.684Z,65.89
2023-01-19T16:40:54.515Z,66.04
2023-01-19T16:43:23.674Z,66.43
2023-01-19T16:46:01.901Z,65.36
2023-01-19T16:48:32.352Z,67.30
2023-01-19T16:51:02.811Z,67.01
2023-01-19T16:53:34.502Z,68.31
2023-01-19T16:56:06.509Z,69.69
2023-01-19T16:58:37.585Z,70.73
2023-01-19T17:01:13.179Z,69.42
2023-01-19T17:03:42.922Z,69.62
2023-01-19T17:06:13.391Z,69.83
2023-01-19T17:08:42.687Z,70.00
2023-01-19T17:11:13.476Z,70.47
2023-01-19T17:13:42.919Z,70.13
2023-01-19T17:16:13.778Z,71.56
2023-01-19T17:18:43.130Z,69.93
2023-01-19T17:21:12.674Z,67.37
2023-01-19T17:23:44.311Z,68.36
2023-01-19T17:26:13.388Z,67.10
2023-01-19T17:28:42.736Z,66.91
2023-01-19T17:31:18.044Z,65.58
2023-01-19T17:33:48.305Z,66.03
2023-01-19T17:36:20.731Z,65.78
2023-01-19T17:38:49.934Z,65.32
2023-01-19T17:41:21.436Z,63.96
2023-01-19T17:43:51.729Z,62.41
2023-01-19T17:46:24.721Z,61.80
2023-01-19T17:48:54.170Z,61.75
2023-01-19T17:51:23.896Z,62.60
2023-01-19T17:53:53.945Z,62.14
2023-01-19T17:56:26.355Z,61.52
2023-01-19T17:58:55.847Z,63.88
2023-01-19T18:01:27.851Z,66.97
2023-01-19T18:03:57.766Z,67.68
2023-01-19T18:06:26.522Z,67.34
2023-01-19T18:08:55.409Z,69.04
2023-01-19T18:11:24.360Z,66.15
2023-01-19T18:13:53.275Z,65.90
2023-01-19T18:16:24.789Z,64.24
2023-01-19T18:18:56.528Z,66.51
2023-01-19T18:21:28.272Z,66.30
2023-01-19T18:24:01.440Z,66.14
2023-01-19T18:26:32.301Z,66.36
2023-01-19T18:29:02.593Z,66.59
2023-01-19T18:31:31.837Z,66.37
2023-01-19T18:34:02.917Z,67.66
2023-01-19T18:36:32.741Z,67.17
2023-01-19T18:39:02.894Z,66.73
2023-01-19T18:41:32.194Z,66.59
2023-01-19T18:44:01.414Z,66.08
2023-01-19T18:46:30.535Z,65.98
2023-01-19T18:48:59.538Z,65.96
2023-01-19T18:51:30.239Z,66.31
2023-01-19T18:53:59.216Z,64.43
2023-01-19T18:56:28.366Z,64.38
2023-01-19T18:58:57.392Z,62.99
2023-01-19T19:01:31.474Z,61.38
2023-01-19T19:04:01.967Z,60.13
2023-01-19T19:06:34.482Z,59.38
2023-01-19T19:09:03.502Z,57.90
2023-01-19T19:11:32.834Z,56.85
2023-01-19T19:14:03.684Z,56.33
2023-01-19T19:16:35.169Z,55.41
2023-01-19T19:19:05.479Z,54.93
2023-01-19T19:21:35.919Z,54.13
2023-01-19T19:24:05.012Z,53.34
2023-01-19T19:26:34.098Z,53.08
2023-01-19T19:29:04.608Z,53.02
2023-01-19T19:31:34.045Z,52.64
2023-01-19T19:34:02.722Z,52.35
2023-01-19T19:36:32.617Z,51.70
2023-01-19T19:39:03.466Z,51.47
2023-01-19T19:41:33.112Z,50.56
2023-01-19T19:44:01.925Z,50.24
2023-01-19T19:46:31.136Z,50.25
2023-01-19T19:48:59.896Z,50.25
2023-01-19T19:51:30.283Z,50.01
2023-01-19T19:54:00.619Z,49.68
2023-01-19T19:56:34.418Z,49.36
2023-01-19T19:59:03.224Z,49.65
2023-01-19T20:01:34.764Z,49.50
2023-01-19T20:04:08.470Z,50.53
2023-01-19T20:06:40.002Z,52.63
2023-01-19T20:09:12.935Z,53.39
2023-01-19T20:11:45.138Z,56.11
2023-01-19T20:14:16.306Z,58.81
2023-01-19T20:16:45.411Z,59.86
2023-01-19T20:19:14.026Z,60.98
2023-01-19T20:21:43.463Z,61.22
2023-01-19T20:24:15.343Z,61.75
2023-01-19T20:26:49.774Z,60.88
2023-01-19T20:29:19.592Z,59.56
2023-01-19T20:31:51.669Z,59.15
2023-01-19T20:34:23.570Z,56.94
2023-01-19T20:36:54.039Z,56.28
2023-01-19T20:39:24.572Z,55.78
2023-01-19T20:41:55.136Z,54.86
2023-01-19T20:44:25.747Z,54.90
2023-01-19T20:46:55.903Z,53.81
2023-01-19T20:49:24.739Z,56.04
2023-01-19T20:51:54.303Z,56.71
2023-01-19T20:54:27.427Z,58.04
2023-01-19T20:56:58.524Z,56.90
2023-01-19T20:59:28.060Z,56.26
2023-01-19T21:01:57.431Z,56.31
2023-01-19T21:04:26.065Z,55.25
2023-01-19T21:06:54.898Z,54.24
2023-01-19T21:09:23.443Z,54.43
2023-01-19T21:11:52.353Z,54.11
2023-01-19T21:14:22.353Z,54.78
2023-01-19T21:16:51.445Z,54.84
2023-01-19T21:19:20.090Z,54.81
2023-01-19T21:21:49.024Z,54.18
2023-01-19T21:24:17.613Z,54.19
2023-01-19T21:26:46.495Z,53.14
2023-01-19T21:29:15.211Z,53.24
2023-01-19T21:31:45.773Z,52.89
2023-01-19T21:34:14.538Z,52.62
2023-01-19T21:36:44.676Z,52.89
2023-01-19T21:39:13.924Z,52.73
2023-01-19T21:41:45.103Z,53.36
2023-01-19T21:44:14.547Z,53.71
2023-01-19T21:46:45.263Z,54.28
2023-01-19T21:49:18.607Z,53.51
2023-01-19T21:51:50.582Z,53.46
2023-01-19T21:54:19.659Z,53.19
2023-01-19T21:56:48.531Z,53.49
2023-01-19T21:59:19.687Z,53.90
2023-01-19T22:01:51.004Z,54.36
2023-01-19T22:04:19.969Z,53.69
2023-01-19T22:06:49.152Z,53.71
2023-01-19T22:09:17.856Z,53.13
2023-01-19T22:11:47.110Z,52.25
2023-01-19T22:14:15.790Z,52.15
2023-01-19T22:16:45.120Z,52.18
2023-01-19T22:19:15.253Z,51.75
2023-01-19T22:21:44.168Z,52.03
2023-01-19T22:24:13.386Z,51.75
2023-01-19T22:26:42.294Z,51.50
2023-01-19T22:29:13.376Z,51.93
2023-01-19T22:31:43.203Z,51.66
2023-01-19T22:34:11.879Z,51.75
2023-01-19T22:36:42.243Z,51.68
2023-01-19T22:39:12.484Z,52.06
2023-01-19T22:41:44.028Z,51.85
2023-01-19T22:44:14.897Z,51.62
2023-01-19T22:46:44.675Z,51.22
2023-01-19T22:49:15.931Z,51.34
2023-01-19T22:51:46.663Z,51.81
2023-01-19T22:54:15.353Z,51.52
2023-01-19T22:56:45.806Z,51.31
2023-01-19T22:59:14.367Z,51.96
2023-01-19T23:01:44.887Z,52.19
2023-01-19T23:04:15.638Z,52.64
2023-01-19T23:06:50.382Z,53.00
2023-01-19T23:09:19.981Z,53.09
2023-01-19T23:11:50.775Z,53.86
2023-01-19T23:14:22.016Z,53.51
2023-01-19T23:16:50.955Z,53.82
2023-01-19T23:19:20.252Z,53.31
2023-01-19T23:21:53.344Z,53.36
2023-01-19T23:24:21.914Z,53.41
2023-01-19T23:26:50.950Z,53.69
2023-01-19T23:29:19.787Z,53.44
2023-01-19T23:31:50.678Z,52.89
2023-01-19T23:34:19.260Z,53.88
2023-01-19T23:36:48.139Z,54.03
2023-01-19T23:39:20.028Z,53.73
2023-01-19T23:41:49.656Z,53.79
2023-01-19T23:44:19.343Z,54.40
2023-01-19T23:46:48.400Z,54.58
2023-01-19T23:49:17.090Z,55.03
2023-01-19T23:51:45.993Z,54.63
2023-01-19T23:54:14.552Z,54.48
2023-01-19T23:56:45.066Z,54.77
2023-01-19T23:59:16.856Z,54.33
